Time;durP1;ratioP1;P1;durP2;ratioP2;P2;SDS_P1;SDS_P2;PMS_P1;PMS_P2;Temp;Humidity;BMP_temperature;BMP_pressure;BME280_temperature;BME280_humidity;BME280_pressure;Samples;Min_cycle;Max_cycle;Signal;HPM_P1;HPM_P2
2022/04/07 00:00:41;;;;;;;21.75;3.35;;;;;;;;;;6119239;23;20018;-54
2022/04/07 00:03:06;;;;;;;12.85;3.58;;;;;;;;;;6115963;23;20010;-53
2022/04/07 00:05:32;;;;;;;19.80;4.43;;;;;;;;;;6118209;23;20057;-52
2022/04/07 00:07:57;;;;;;;16.98;4.40;;;;;;;;;;6114964;23;20006;-56
2022/04/07 00:10:22;;;;;;;14.40;3.00;;;;;;;;;;6118141;23;20018;-55
2022/04/07 00:12:47;;;;;;;19.55;4.03;;;;;;;;;;6116602;23;20094;-54
2022/04/07 00:15:13;;;;;;;21.63;4.00;;;;;;;;;;6117821;23;20025;-56
2022/04/07 00:17:38;;;;;;;29.50;5.57;;;;;;;;;;6117915;23;20014;-58
2022/04/07 00:20:04;;;;;;;31.75;5.18;;;;;;;;;;6118850;23;20043;-58
2022/04/07 00:22:30;;;;;;;18.45;3.30;;;;;;;;;;6117330;23;20022;-58
2022/04/07 00:24:55;;;;;;;15.30;3.38;;;;;;;;;;6119617;23;20010;-57
2022/04/07 00:27:20;;;;;;;11.10;3.35;;;;;;;;;;6117896;23;20120;-56
2022/04/07 00:29:46;;;;;;;12.93;2.65;;;;;;;;;;6119910;23;20839;-56
2022/04/07 00:32:11;;;;;;;17.38;2.50;;;;;;;;;;6117261;23;20006;-57
2022/04/07 00:34:37;;;;;;;13.18;3.47;;;;;;;;;;6143700;23;20476;-56
2022/04/07 00:37:02;;;;;;;12.82;3.90;;;;;;;;;;6119708;23;20018;-55
2022/04/07 00:39:28;;;;;;;18.75;3.17;;;;;;;;;;6117675;23;20010;-57
2022/04/07 00:41:53;;;;;;;8.05;3.00;;;;;;;;;;6120374;23;20014;-56
2022/04/07 00:44:21;;;;;;;16.33;2.10;;;;;;;;;;6119615;23;20013;-56
2022/04/07 00:46:47;;;;;;;10.20;2.67;;;;;;;;;;6119699;23;20045;-57
2022/04/07 00:49:12;;;;;;;18.65;2.83;;;;;;;;;;6119330;23;20014;-56
2022/04/07 00:51:39;;;;;;;15.93;2.90;;;;;;;;;;6119833;23;20021;-56
2022/04/07 00:54:06;;;;;;;16.85;3.03;;;;;;;;;;6119101;23;20085;-57
2022/04/07 00:56:32;;;;;;;6.32;1.85;;;;;;;;;;6118531;23;20041;-57
2022/04/07 00:58:58;;;;;;;7.90;1.98;;;;;;;;;;6118087;23;20021;-58
2022/04/07 01:01:27;;;;;;;4.13;1.13;;;;;;;;;;6118055;23;20032;-58
2022/04/07 01:03:54;;;;;;;5.38;1.30;;;;;;;;;;6120568;23;20010;-59
2022/04/07 01:06:19;;;;;;;5.55;1.50;;;;;;;;;;6118535;23;20017;-59
2022/04/07 01:08:44;;;;;;;9.20;1.35;;;;;;;;;;6120006;23;20037;-58
2022/04/07 01:11:10;;;;;;;12.82;1.67;;;;;;;;;;6118193;23;20022;-58
2022/04/07 01:13:49;;;;;;;9.68;1.73;;;;;;;;;;6120579;23;20010;-58
2022/04/07 01:16:15;;;;;;;7.43;1.38;;;;;;;;;;6118910;23;20036;-59
2022/04/07 01:18:40;;;;;;;12.02;1.52;;;;;;;;;;6119343;23;20022;-58
2022/04/07 01:21:08;;;;;;;7.03;1.33;;;;;;;;;;6112944;23;20029;-58
2022/04/07 01:23:34;;;;;;;6.78;1.40;;;;;;;;;;6117811;23;20052;-59
2022/04/07 01:26:00;;;;;;;20.42;3.65;;;;;;;;;;6119476;23;20013;-58
2022/04/07 01:28:25;;;;;;;9.45;2.13;;;;;;;;;;6118698;23;20069;-58
2022/04/07 01:30:50;;;;;;;15.27;2.85;;;;;;;;;;6120331;23;20018;-58
2022/04/07 01:33:16;;;;;;;16.38;3.20;;;;;;;;;;6116773;23;20014;-56
2022/04/07 01:35:41;;;;;;;12.68;3.08;;;;;;;;;;6120399;23;20018;-58
2022/04/07 01:38:06;;;;;;;16.10;3.38;;;;;;;;;;6118659;23;20397;-58
2022/04/07 01:40:33;;;;;;;18.25;2.88;;;;;;;;;;6117804;23;20010;-59
2022/04/07 01:42:59;;;;;;;18.27;4.53;;;;;;;;;;6118987;23;20010;-59
2022/04/07 01:45:25;;;;;;;12.95;2.83;;;;;;;;;;6118163;23;20020;-58
2022/04/07 01:47:52;;;;;;;13.68;2.65;;;;;;;;;;6118102;23;20058;-58
2022/04/07 01:50:19;;;;;;;6.25;2.47;;;;;;;;;;6117361;23;20038;-58
2022/04/07 01:52:47;;;;;;;15.30;2.83;;;;;;;;;;6120557;23;20017;-58
2022/04/07 01:55:15;;;;;;;16.17;2.80;;;;;;;;;;6117124;23;20048;-56
2022/04/07 01:57:40;;;;;;;9.13;2.28;;;;;;;;;;6119108;23;20025;-58
2022/04/07 02:00:06;;;;;;;12.35;3.28;;;;;;;;;;6117563;23;20018;-58
2022/04/07 02:02:31;;;;;;;8.93;2.47;;;;;;;;;;6117802;23;20317;-58
2022/04/07 02:04:57;;;;;;;8.95;1.85;;;;;;;;;;6119728;23;20063;-55
2022/04/07 02:07:27;;;;;;;13.13;3.28;;;;;;;;;;6118004;23;20081;-56
2022/04/07 02:09:52;;;;;;;8.90;2.58;;;;;;;;;;6119069;23;20569;-54
2022/04/07 02:12:20;;;;;;;18.23;2.85;;;;;;;;;;6118059;23;20018;-56
2022/04/07 02:14:45;;;;;;;20.65;3.05;;;;;;;;;;6119278;23;20022;-57
2022/04/07 02:17:11;;;;;;;14.68;2.90;;;;;;;;;;6117412;23;20041;-56
2022/04/07 02:19:36;;;;;;;16.63;3.97;;;;;;;;;;6118361;23;20010;-56
2022/04/07 02:22:02;;;;;;;17.30;3.58;;;;;;;;;;6118169;23;20054;-57
2022/04/07 02:24:27;;;;;;;9.68;3.10;;;;;;;;;;6118069;23;20014;-57
2022/04/07 02:26:52;;;;;;;9.88;3.33;;;;;;;;;;6118348;23;20086;-57
2022/04/07 02:29:17;;;;;;;15.43;3.22;;;;;;;;;;6117998;23;20021;-56
2022/04/07 02:31:43;;;;;;;13.70;3.15;;;;;;;;;;6118518;23;20116;-58
2022/04/07 02:34:08;;;;;;;18.35;4.60;;;;;;;;;;6118515;23;20013;-55
2022/04/07 02:36:33;;;;;;;12.63;3.17;;;;;;;;;;6118038;23;20041;-58
2022/04/07 02:38:59;;;;;;;26.35;4.90;;;;;;;;;;6117534;23;20014;-57
2022/04/07 02:41:24;;;;;;;13.38;3.35;;;;;;;;;;6118256;23;20026;-58
2022/04/07 02:43:50;;;;;;;13.80;2.42;;;;;;;;;;6117720;23;20026;-58
2022/04/07 02:46:15;;;;;;;13.88;2.88;;;;;;;;;;6117976;23;20072;-57
2022/04/07 02:48:40;;;;;;;14.35;3.15;;;;;;;;;;6117744;23;20051;-55
2022/04/07 02:51:06;;;;;;;19.35;3.63;;;;;;;;;;6117799;23;20467;-56
2022/04/07 02:53:31;;;;;;;25.80;4.63;;;;;;;;;;6116937;23;20146;-58
2022/04/07 02:55:56;;;;;;;15.23;3.55;;;;;;;;;;6119040;23;20062;-53
2022/04/07 02:58:22;;;;;;;16.48;3.47;;;;;;;;;;6114002;23;20072;-56
2022/04/07 03:00:47;;;;;;;22.02;5.00;;;;;;;;;;6118583;23;20006;-57
2022/04/07 03:03:12;;;;;;;20.67;4.45;;;;;;;;;;6114254;23;20022;-58
2022/04/07 03:05:38;;;;;;;20.05;4.03;;;;;;;;;;6119415;23;20017;-54
2022/04/07 03:08:03;;;;;;;18.90;3.70;;;;;;;;;;6117906;23;20018;-56
2022/04/07 03:10:28;;;;;;;20.08;3.97;;;;;;;;;;6116910;23;20010;-57
2022/04/07 03:12:53;;;;;;;22.58;4.43;;;;;;;;;;6118941;23;20033;-56
2022/04/07 03:15:19;;;;;;;21.33;3.33;;;;;;;;;;6115605;23;20026;-56
2022/04/07 03:17:44;;;;;;;33.38;5.93;;;;;;;;;;6118977;23;20010;-56
2022/04/07 03:20:10;;;;;;;20.75;3.50;;;;;;;;;;6113396;23;20266;-56
2022/04/07 03:22:35;;;;;;;24.00;4.18;;;;;;;;;;6119648;23;20045;-57
2022/04/07 03:25:00;;;;;;;21.95;5.22;;;;;;;;;;6111436;23;20022;-55
2022/04/07 03:27:25;;;;;;;13.88;4.60;;;;;;;;;;6140737;23;20077;-57
2022/04/07 03:29:51;;;;;;;25.05;4.15;;;;;;;;;;6117470;23;20609;-56
2022/04/07 03:32:16;;;;;;;23.65;6.30;;;;;;;;;;6114915;23;20025;-56
2022/04/07 03:34:41;;;;;;;14.93;3.88;;;;;;;;;;6138359;23;20073;-56
2022/04/07 03:37:07;;;;;;;23.50;4.90;;;;;;;;;;6117602;23;20030;-57
2022/04/07 03:39:32;;;;;;;13.55;2.60;;;;;;;;;;6116099;23;20018;-54
2022/04/07 03:41:58;;;;;;;24.40;5.82;;;;;;;;;;6117787;23;20161;-55
2022/04/07 03:44:23;;;;;;;17.25;4.13;;;;;;;;;;6114898;23;20083;-55
2022/04/07 03:46:49;;;;;;;18.63;6.57;;;;;;;;;;6119322;23;20014;-57
2022/04/07 03:49:14;;;;;;;22.52;5.00;;;;;;;;;;6114113;23;20010;-56
2022/04/07 03:51:39;;;;;;;16.67;4.00;;;;;;;;;;6118974;23;20048;-57
2022/04/07 03:54:05;;;;;;;18.90;3.80;;;;;;;;;;6113944;23;20393;-57
2022/04/07 03:56:30;;;;;;;29.45;4.55;;;;;;;;;;6117293;23;20708;-55
2022/04/07 03:58:56;;;;;;;20.27;4.00;;;;;;;;;;6117271;23;20048;-58
2022/04/07 04:01:21;;;;;;;23.23;4.05;;;;;;;;;;6118198;23;20026;-58
2022/04/07 04:03:46;;;;;;;23.23;4.18;;;;;;;;;;6120058;23;20065;-57
2022/04/07 04:06:12;;;;;;;20.15;5.70;;;;;;;;;;6119296;23;20022;-56
2022/04/07 04:08:37;;;;;;;16.25;3.75;;;;;;;;;;6118494;23;20010;-56
2022/04/07 04:11:02;;;;;;;17.23;4.95;;;;;;;;;;6119579;23;20018;-57
2022/04/07 04:13:29;;;;;;;23.77;5.38;;;;;;;;;;6117708;23;20075;-56
2022/04/07 04:15:55;;;;;;;15.95;4.47;;;;;;;;;;6121510;23;20029;-56
2022/04/07 04:18:20;;;;;;;31.15;4.85;;;;;;;;;;6118941;23;20434;-56
2022/04/07 04:20:46;;;;;;;14.35;3.58;;;;;;;;;;6120822;23;20237;-55
2022/04/07 04:23:11;;;;;;;18.92;2.88;;;;;;;;;;6118454;23;20025;-57
2022/04/07 04:25:36;;;;;;;10.75;3.13;;;;;;;;;;6121258;23;20036;-56
2022/04/07 04:28:01;;;;;;;10.07;2.40;;;;;;;;;;6119496;23;20017;-56
2022/04/07 04:30:26;;;;;;;17.60;3.60;;;;;;;;;;6119484;23;20021;-56
2022/04/07 04:32:52;;;;;;;9.35;2.80;;;;;;;;;;6120451;23;20010;-56
2022/04/07 04:35:17;;;;;;;15.90;2.80;;;;;;;;;;6120244;23;20028;-56
2022/04/07 04:37:43;;;;;;;15.48;3.92;;;;;;;;;;6120397;23;20036;-56
2022/04/07 04:40:08;;;;;;;23.38;5.45;;;;;;;;;;6121200;23;20409;-58
2022/04/07 04:42:34;;;;;;;14.20;2.83;;;;;;;;;;6118066;23;20024;-56
2022/04/07 04:44:59;;;;;;;10.60;2.80;;;;;;;;;;6121369;23;20014;-56
2022/04/07 04:47:24;;;;;;;20.13;2.92;;;;;;;;;;6118411;23;20515;-56
2022/04/07 04:49:50;;;;;;;8.13;1.95;;;;;;;;;;6121975;23;20554;-57
2022/04/07 04:52:15;;;;;;;11.27;2.88;;;;;;;;;;6118191;23;20010;-57
2022/04/07 04:54:40;;;;;;;10.77;3.13;;;;;;;;;;6120477;23;20018;-56
2022/04/07 04:57:06;;;;;;;12.25;2.55;;;;;;;;;;6118829;23;20038;-57
2022/04/07 04:59:31;;;;;;;13.68;3.30;;;;;;;;;;6120053;23;20194;-54
2022/04/07 05:01:57;;;;;;;12.98;2.67;;;;;;;;;;6117320;23;20144;-57
2022/04/07 05:04:22;;;;;;;16.08;3.97;;;;;;;;;;6119060;23;20436;-58
2022/04/07 05:06:47;;;;;;;11.10;3.08;;;;;;;;;;6119435;23;20013;-57
2022/04/07 05:09:13;;;;;;;18.88;3.75;;;;;;;;;;6119776;23;20018;-57
2022/04/07 05:11:38;;;;;;;10.45;2.90;;;;;;;;;;6118907;23;20010;-55
2022/04/07 05:14:03;;;;;;;16.25;4.30;;;;;;;;;;6118885;23;20030;-57
2022/04/07 05:16:29;;;;;;;21.15;3.00;;;;;;;;;;6116750;23;20022;-57
2022/04/07 05:18:54;;;;;;;11.15;3.00;;;;;;;;;;6119540;23;20013;-56
2022/04/07 05:21:19;;;;;;;18.15;4.55;;;;;;;;;;6116386;23;20420;-57
2022/04/07 05:23:44;;;;;;;18.60;3.63;;;;;;;;;;6118823;23;20528;-55
2022/04/07 05:26:12;;;;;;;10.23;2.97;;;;;;;;;;6116860;23;20018;-57
2022/04/07 05:28:37;;;;;;;12.73;4.60;;;;;;;;;;6119658;23;20053;-56
2022/04/07 05:31:03;;;;;;;22.25;6.22;;;;;;;;;;6118859;23;20021;-57
2022/04/07 05:33:28;;;;;;;13.05;3.05;;;;;;;;;;6118020;23;20077;-55
2022/04/07 05:35:53;;;;;;;17.65;4.03;;;;;;;;;;6117816;23;20040;-53
2022/04/07 05:38:18;;;;;;;11.35;3.08;;;;;;;;;;6118511;23;20018;-57
2022/04/07 05:40:44;;;;;;;16.38;4.60;;;;;;;;;;6119740;23;20078;-57
2022/04/07 05:43:09;;;;;;;17.38;4.03;;;;;;;;;;6117990;23;20026;-53
2022/04/07 05:45:34;;;;;;;21.92;3.47;;;;;;;;;;6119224;23;20002;-55
2022/04/07 05:48:00;;;;;;;17.45;3.13;;;;;;;;;;6118832;23;20070;-53
2022/04/07 05:50:25;;;;;;;19.02;5.93;;;;;;;;;;6118091;23;20093;-55
2022/04/07 05:52:50;;;;;;;19.98;4.10;;;;;;;;;;6116817;23;20014;-55
2022/04/07 05:55:16;;;;;;;34.40;4.50;;;;;;;;;;6116949;23;20017;-55
2022/04/07 05:57:41;;;;;;;19.13;3.60;;;;;;;;;;6118314;23;20017;-54
2022/04/07 06:00:08;;;;;;;13.13;3.17;;;;;;;;;;6118999;23;20073;-56
2022/04/07 06:02:33;;;;;;;23.50;5.10;;;;;;;;;;6118156;23;20041;-53
2022/04/07 06:04:59;;;;;;;8.88;2.03;;;;;;;;;;6119716;23;20013;-55
2022/04/07 06:07:24;;;;;;;19.75;3.53;;;;;;;;;;6117113;23;20025;-56
2022/04/07 06:09:49;;;;;;;22.15;5.13;;;;;;;;;;6118613;23;20385;-57
2022/04/07 06:12:14;;;;;;;17.85;4.10;;;;;;;;;;6116406;23;20014;-52
2022/04/07 06:14:40;;;;;;;17.08;4.63;;;;;;;;;;6119122;23;20388;-58
2022/04/07 06:17:05;;;;;;;19.70;3.53;;;;;;;;;;6118409;23;20018;-55
2022/04/07 06:19:30;;;;;;;20.80;3.13;;;;;;;;;;6118705;23;20094;-53
2022/04/07 06:21:56;;;;;;;18.13;3.72;;;;;;;;;;6118043;23;20084;-53
2022/04/07 06:24:21;;;;;;;12.38;3.28;;;;;;;;;;6117875;23;20080;-56
2022/04/07 06:26:47;;;;;;;21.25;3.65;;;;;;;;;;6119431;23;20578;-55
2022/04/07 06:29:13;;;;;;;17.63;5.35;;;;;;;;;;6117750;23;20397;-57
2022/04/07 06:31:38;;;;;;;14.00;3.47;;;;;;;;;;6118986;23;20030;-59
2022/04/07 06:34:03;;;;;;;9.48;3.53;;;;;;;;;;6138474;23;20431;-54
2022/04/07 06:36:29;;;;;;;8.63;3.20;;;;;;;;;;6117873;23;20010;-56
2022/04/07 06:38:54;;;;;;;9.57;2.83;;;;;;;;;;6117011;23;20014;-55
2022/04/07 06:41:19;;;;;;;8.82;2.25;;;;;;;;;;6117769;23;20076;-56
2022/04/07 06:43:44;;;;;;;13.07;2.97;;;;;;;;;;6116705;23;20017;-55
2022/04/07 06:46:11;;;;;;;12.57;3.30;;;;;;;;;;6118672;23;20042;-55
2022/04/07 06:48:36;;;;;;;11.05;2.85;;;;;;;;;;6115947;23;20014;-53
2022/04/07 06:51:02;;;;;;;15.63;2.80;;;;;;;;;;6119005;23;20461;-57
2022/04/07 06:53:27;;;;;;;18.25;3.13;;;;;;;;;;6114542;23;20018;-57
2022/04/07 06:55:52;;;;;;;17.63;3.22;;;;;;;;;;6116858;23;20025;-56
2022/04/07 06:58:18;;;;;;;12.65;3.10;;;;;;;;;;6115761;23;20025;-55
2022/04/07 07:00:44;;;;;;;11.75;3.00;;;;;;;;;;6117491;23;20032;-55
2022/04/07 07:03:10;;;;;;;12.23;2.80;;;;;;;;;;6118824;23;20021;-55
2022/04/07 07:05:36;;;;;;;10.18;1.98;;;;;;;;;;6116195;23;20018;-52
2022/04/07 07:08:13;;;;;;;17.25;3.67;;;;;;;;;;6119157;23;20018;-54
2022/04/07 07:10:39;;;;;;;8.57;3.47;;;;;;;;;;6118218;23;20022;-55
2022/04/07 07:13:04;;;;;;;13.90;3.65;;;;;;;;;;6115084;23;20400;-55
2022/04/07 07:15:29;;;;;;;18.75;3.28;;;;;;;;;;6118385;23;20026;-53
2022/04/07 07:17:55;;;;;;;24.08;3.97;;;;;;;;;;6115290;23;20006;-52
2022/04/07 07:20:20;;;;;;;12.07;3.85;;;;;;;;;;6117528;23;20095;-54
2022/04/07 07:22:45;;;;;;;9.15;3.20;;;;;;;;;;6115227;23;20033;-53
2022/04/07 07:25:11;;;;;;;9.07;2.70;;;;;;;;;;6117731;23;20014;-55
2022/04/07 07:27:37;;;;;;;10.98;1.80;;;;;;;;;;6116397;23;20009;-56
2022/04/07 07:30:03;;;;;;;3.20;1.30;;;;;;;;;;6118401;23;20029;-55
2022/04/07 07:32:28;;;;;;;7.03;1.85;;;;;;;;;;6117055;23;20018;-52
2022/04/07 07:34:53;;;;;;;9.90;1.98;;;;;;;;;;6118097;23;20030;-54
2022/04/07 07:37:19;;;;;;;12.57;2.42;;;;;;;;;;6114506;23;20018;-56
2022/04/07 07:39:44;;;;;;;16.05;2.30;;;;;;;;;;6112898;23;20031;-56
2022/04/07 07:42:09;;;;;;;5.70;1.88;;;;;;;;;;6111301;23;20025;-56
2022/04/07 07:44:34;;;;;;;16.17;2.15;;;;;;;;;;6114082;23;20020;-52
2022/04/07 07:47:00;;;;;;;12.23;2.15;;;;;;;;;;6115213;23;20070;-54
2022/04/07 07:49:25;;;;;;;13.65;2.60;;;;;;;;;;6111982;23;20242;-55
2022/04/07 07:51:51;;;;;;;6.50;2.90;;;;;;;;;;6114845;23;20097;-55
2022/04/07 07:54:17;;;;;;;8.75;3.15;;;;;;;;;;6111664;23;20024;-56
2022/04/07 07:56:42;;;;;;;11.15;2.15;;;;;;;;;;6115696;23;20085;-55
2022/04/07 07:59:07;;;;;;;6.57;2.22;;;;;;;;;;6111702;23;20014;-53
2022/04/07 08:01:33;;;;;;;5.85;2.60;;;;;;;;;;6112450;23;20061;-53
2022/04/07 08:03:58;;;;;;;4.95;2.05;;;;;;;;;;6110805;23;20010;-57
2022/04/07 08:06:23;;;;;;;14.30;2.50;;;;;;;;;;6106264;23;20018;-57
2022/04/07 08:08:48;;;;;;;8.23;1.83;;;;;;;;;;6116238;23;20010;-57
2022/04/07 08:11:14;;;;;;;9.35;2.45;;;;;;;;;;6110904;23;20029;-54
2022/04/07 08:13:39;;;;;;;12.55;2.45;;;;;;;;;;6116931;23;20119;-57
2022/04/07 08:16:05;;;;;;;13.30;1.83;;;;;;;;;;6118243;23;20141;-57
2022/04/07 08:18:30;;;;;;;6.43;1.95;;;;;;;;;;6115181;23;20018;-56
2022/04/07 08:20:55;;;;;;;14.75;2.13;;;;;;;;;;6118841;23;20013;-57
2022/04/07 08:23:20;;;;;;;6.63;2.60;;;;;;;;;;6115601;23;20018;-57
2022/04/07 08:25:46;;;;;;;8.23;1.63;;;;;;;;;;6117618;23;20010;-57
2022/04/07 08:28:11;;;;;;;9.18;1.23;;;;;;;;;;6116217;23;20022;-56
2022/04/07 08:30:36;;;;;;;5.82;2.40;;;;;;;;;;6118022;23;20010;-54
2022/04/07 08:33:02;;;;;;;7.28;2.92;;;;;;;;;;6117181;23;20209;-55
2022/04/07 08:35:27;;;;;;;8.45;1.73;;;;;;;;;;6118135;23;20021;-54
2022/04/07 08:37:53;;;;;;;3.63;1.80;;;;;;;;;;6115948;23;20010;-57
2022/04/07 08:40:20;;;;;;;8.80;1.45;;;;;;;;;;6117425;23;20017;-57
2022/04/07 08:42:45;;;;;;;10.75;3.05;;;;;;;;;;6115590;23;20519;-58
2022/04/07 08:45:10;;;;;;;8.73;1.63;;;;;;;;;;6117498;23;20010;-57
2022/04/07 08:47:37;;;;;;;6.72;1.65;;;;;;;;;;6116908;23;20046;-55
2022/04/07 08:50:03;;;;;;;12.45;4.00;;;;;;;;;;6120596;23;20042;-55
2022/04/07 08:52:29;;;;;;;6.85;2.05;;;;;;;;;;6116761;23;20026;-57
2022/04/07 08:54:54;;;;;;;19.02;3.38;;;;;;;;;;6120833;23;20017;-55
2022/04/07 08:57:20;;;;;;;10.73;1.88;;;;;;;;;;6116638;23;20018;-57
2022/04/07 08:59:45;;;;;;;4.40;1.38;;;;;;;;;;6118398;23;20444;-57
2022/04/07 09:02:12;;;;;;;4.18;1.48;;;;;;;;;;6139644;23;20026;-57
2022/04/07 09:04:37;;;;;;;11.20;2.08;;;;;;;;;;6120660;23;20017;-56
2022/04/07 09:07:03;;;;;;;4.00;1.75;;;;;;;;;;6113678;23;20025;-54
2022/04/07 09:09:30;;;;;;;6.43;1.55;;;;;;;;;;6118923;23;20014;-57
2022/04/07 09:11:56;;;;;;;3.90;1.35;;;;;;;;;;6117900;23;20461;-57
2022/04/07 09:14:21;;;;;;;7.97;1.98;;;;;;;;;;6116926;23;20061;-57
2022/04/07 09:16:47;;;;;;;9.90;1.77;;;;;;;;;;6119064;23;20018;-56
2022/04/07 09:19:13;;;;;;;15.88;2.60;;;;;;;;;;6119983;23;20014;-57
2022/04/07 09:21:38;;;;;;;6.20;1.60;;;;;;;;;;6116777;23;20033;-57
2022/04/07 09:24:07;;;;;;;4.78;1.42;;;;;;;;;;6117599;23;20014;-55
2022/04/07 09:26:36;;;;;;;9.43;1.20;;;;;;;;;;6119432;23;20040;-55
2022/04/07 09:29:11;;;;;;;3.33;1.33;;;;;;;;;;6112847;23;20073;-55
2022/04/07 09:31:38;;;;;;;5.95;1.55;;;;;;;;;;6117574;23;20318;-58
2022/04/07 09:34:03;;;;;;;2.05;0.70;;;;;;;;;;6116205;23;20521;-55
2022/04/07 09:36:28;;;;;;;4.93;1.13;;;;;;;;;;6116774;23;20571;-56
2022/04/07 09:38:55;;;;;;;9.20;2.67;;;;;;;;;;6117842;23;20037;-55
2022/04/07 09:41:21;;;;;;;8.00;1.45;;;;;;;;;;6113805;23;20029;-55
2022/04/07 09:43:57;;;;;;;28.20;3.47;;;;;;;;;;6118081;23;20073;-55
2022/04/07 09:46:23;;;;;;;7.28;1.67;;;;;;;;;;6114925;23;20297;-56
2022/04/07 09:49:00;;;;;;;6.45;1.05;;;;;;;;;;6120008;23;20029;-55
2022/04/07 09:51:29;;;;;;;1.77;1.42;;;;;;;;;;6115425;23;20014;-56
2022/04/07 09:53:55;;;;;;;7.18;1.55;;;;;;;;;;6118474;23;20021;-54
2022/04/07 09:56:21;;;;;;;4.32;1.33;;;;;;;;;;6115285;23;20014;-55
2022/04/07 09:58:47;;;;;;;4.80;1.15;;;;;;;;;;6119463;23;20041;-57
2022/04/07 10:01:12;;;;;;;5.13;1.42;;;;;;;;;;6114762;23;20377;-55
2022/04/07 10:03:38;;;;;;;7.68;1.77;;;;;;;;;;6111992;23;20022;-57
2022/04/07 10:06:03;;;;;;;10.38;1.60;;;;;;;;;;6114487;23;20021;-56
2022/04/07 10:08:28;;;;;;;13.95;2.42;;;;;;;;;;6118665;23;20395;-57
2022/04/07 10:10:54;;;;;;;5.85;2.17;;;;;;;;;;6116563;23;20005;-54
2022/04/07 10:13:20;;;;;;;8.60;2.60;;;;;;;;;;6115505;23;20017;-56
2022/04/07 10:15:45;;;;;;;9.40;1.40;;;;;;;;;;6117766;23;20535;-56
2022/04/07 10:18:17;;;;;;;6.60;1.20;;;;;;;;;;6119217;23;20014;-56
2022/04/07 10:20:47;;;;;;;13.27;1.52;;;;;;;;;;6140160;23;20025;-56
2022/04/07 10:23:12;;;;;;;;;;;;;;;;;;6119178;23;20038;-57
2022/04/07 10:25:39;;;;;;;5.35;1.52;;;;;;;;;;6116918;23;19924;-53
2022/04/07 10:28:05;;;;;;;9.30;1.42;;;;;;;;;;6118670;23;20033;-55
2022/04/07 10:30:30;;;;;;;4.85;0.85;;;;;;;;;;6118515;23;20014;-55
2022/04/07 10:32:58;;;;;;;5.88;1.13;;;;;;;;;;6118479;23;20010;-54
2022/04/07 10:35:29;;;;;;;4.28;0.85;;;;;;;;;;6118025;23;20028;-56
2022/04/07 10:37:55;;;;;;;3.85;1.27;;;;;;;;;;6117532;23;20021;-55
2022/04/07 10:40:40;;;;;;;2.78;0.90;;;;;;;;;;6116531;23;20018;-54
2022/04/07 10:43:06;;;;;;;12.30;1.15;;;;;;;;;;6118673;23;20030;-53
2022/04/07 10:45:34;;;;;;;6.40;1.17;;;;;;;;;;6116186;23;20017;-55
2022/04/07 10:48:18;;;;;;;4.65;1.13;;;;;;;;;;6119258;23;20014;-55
2022/04/07 10:50:47;;;;;;;3.83;1.42;;;;;;;;;;6116664;23;20010;-54
2022/04/07 10:53:24;;;;;;;3.83;0.65;;;;;;;;;;6118026;23;20045;-54
2022/04/07 10:55:56;;;;;;;3.90;0.80;;;;;;;;;;6119037;23;20058;-54
2022/04/07 10:58:35;;;;;;;4.13;1.20;;;;;;;;;;6116959;23;20029;-54
2022/04/07 11:01:01;;;;;;;7.53;1.60;;;;;;;;;;6118261;23;20006;-55
2022/04/07 11:03:26;;;;;;;2.50;1.15;;;;;;;;;;6116972;23;20045;-52
2022/04/07 11:05:52;;;;;;;8.10;1.70;;;;;;;;;;6111432;23;20532;-54
2022/04/07 11:08:21;;;;;;;8.73;1.35;;;;;;;;;;6114519;23;20051;-55
2022/04/07 11:10:48;;;;;;;8.30;1.00;;;;;;;;;;6118576;23;20010;-55
2022/04/07 11:13:13;;;;;;;3.97;0.60;;;;;;;;;;6115216;23;20022;-56
2022/04/07 11:15:48;;;;;;;7.45;0.80;;;;;;;;;;6117964;23;20065;-54
2022/04/07 11:18:32;;;;;;;4.05;1.20;;;;;;;;;;6118383;23;20018;-55
2022/04/07 11:21:08;;;;;;;1.48;0.75;;;;;;;;;;6115458;23;20018;-55
2022/04/07 11:23:41;;;;;;;5.72;1.35;;;;;;;;;;6117554;23;20045;-56
2022/04/07 11:26:10;;;;;;;6.18;1.00;;;;;;;;;;6115683;23;20018;-56
2022/04/07 11:28:37;;;;;;;4.18;1.20;;;;;;;;;;6116973;23;20013;-54
2022/04/07 11:31:04;;;;;;;3.10;1.00;;;;;;;;;;6118102;23;20034;-54
2022/04/07 11:33:39;;;;;;;4.38;1.30;;;;;;;;;;6114345;23;20028;-55
2022/04/07 11:36:05;;;;;;;4.72;1.00;;;;;;;;;;6115613;23;20198;-54
2022/04/07 11:38:30;;;;;;;3.58;0.73;;;;;;;;;;6116306;23;20778;-55
2022/04/07 11:40:58;;;;;;;4.00;1.45;;;;;;;;;;6111063;23;20006;-53
2022/04/07 11:43:24;;;;;;;4.85;1.20;;;;;;;;;;6112315;23;20026;-56
2022/04/07 11:45:49;;;;;;;5.18;1.13;;;;;;;;;;6111200;23;20010;-56
2022/04/07 11:48:14;;;;;;;5.10;0.88;;;;;;;;;;6113535;23;20364;-53
2022/04/07 11:50:40;;;;;;;6.80;1.45;;;;;;;;;;6113166;23;20411;-55
2022/04/07 11:53:05;;;;;;;5.85;1.45;;;;;;;;;;6112713;23;20041;-56
2022/04/07 11:55:31;;;;;;;9.82;2.33;;;;;;;;;;6111554;23;20018;-52
2022/04/07 11:57:59;;;;;;;1.80;0.80;;;;;;;;;;6112852;23;20017;-54
2022/04/07 12:00:28;;;;;;;2.17;1.00;;;;;;;;;;6109435;23;20021;-56
2022/04/07 12:02:58;;;;;;;4.05;0.98;;;;;;;;;;6114332;23;20025;-56
2022/04/07 12:05:23;;;;;;;2.47;1.05;;;;;;;;;;6110699;23;20018;-56
2022/04/07 12:07:48;;;;;;;5.78;0.73;;;;;;;;;;6114637;23;20017;-54
2022/04/07 12:10:14;;;;;;;2.10;0.70;;;;;;;;;;6109273;23;20074;-56
2022/04/07 12:12:40;;;;;;;3.85;1.08;;;;;;;;;;6111823;23;20006;-57
2022/04/07 12:15:05;;;;;;;4.40;1.10;;;;;;;;;;6113681;23;20033;-55
2022/04/07 12:17:34;;;;;;;4.85;1.17;;;;;;;;;;6108575;23;20080;-55
2022/04/07 12:20:00;;;;;;;1.35;0.60;;;;;;;;;;6109491;23;20014;-56
2022/04/07 12:22:29;;;;;;;3.38;0.68;;;;;;;;;;6114584;23;20072;-55
2022/04/07 12:24:58;;;;;;;3.72;0.95;;;;;;;;;;6139595;23;20014;-55
2022/04/07 12:27:28;;;;;;;6.97;0.95;;;;;;;;;;6119338;23;20470;-56
2022/04/07 12:29:53;;;;;;;1.83;0.77;;;;;;;;;;6116051;23;20021;-52
2022/04/07 12:32:18;;;;;;;6.10;1.15;;;;;;;;;;6118902;23;20014;-55
2022/04/07 12:34:50;;;;;;;4.65;2.05;;;;;;;;;;6120001;23;20346;-53
2022/04/07 12:37:28;;;;;;;7.88;1.15;;;;;;;;;;6116844;23;20010;-55
2022/04/07 12:39:53;;;;;;;2.58;1.17;;;;;;;;;;6118592;23;20034;-56
2022/04/07 12:42:18;;;;;;;4.07;1.48;;;;;;;;;;6116620;23;20022;-55
2022/04/07 12:44:45;;;;;;;3.25;1.10;;;;;;;;;;6120387;23;20002;-55
2022/04/07 12:47:13;;;;;;;4.07;1.05;;;;;;;;;;6118560;23;20070;-54
2022/04/07 12:49:39;;;;;;;3.58;1.23;;;;;;;;;;6118977;23;20040;-54
2022/04/07 12:52:19;;;;;;;6.90;1.50;;;;;;;;;;6118625;23;20014;-57
2022/04/07 12:54:58;;;;;;;2.08;0.40;;;;;;;;;;6118962;23;20071;-55
2022/04/07 12:57:29;;;;;;;5.18;0.70;;;;;;;;;;6117975;23;20481;-55
2022/04/07 12:59:56;;;;;;;1.23;0.52;;;;;;;;;;6120700;23;20082;-52
2022/04/07 13:02:22;;;;;;;1.92;1.08;;;;;;;;;;6118170;23;20305;-54
2022/04/07 13:04:48;;;;;;;7.07;1.15;;;;;;;;;;6113801;23;20033;-57
2022/04/07 13:07:14;;;;;;;3.42;0.70;;;;;;;;;;6118389;23;20018;-57
2022/04/07 13:09:39;;;;;;;1.15;0.68;;;;;;;;;;6118797;23;20014;-56
2022/04/07 13:12:05;;;;;;;7.85;1.00;;;;;;;;;;6117404;23;20024;-56
2022/04/07 13:14:31;;;;;;;2.60;0.75;;;;;;;;;;6117915;23;20026;-55
2022/04/07 13:16:57;;;;;;;3.72;0.95;;;;;;;;;;6114497;23;20049;-57
2022/04/07 13:19:22;;;;;;;4.45;0.75;;;;;;;;;;6116648;23;20833;-55
2022/04/07 13:21:47;;;;;;;2.05;0.55;;;;;;;;;;6119672;23;20014;-55
2022/04/07 13:24:13;;;;;;;3.88;1.73;;;;;;;;;;6118414;23;20021;-55
2022/04/07 13:26:38;;;;;;;3.63;0.85;;;;;;;;;;6141597;23;20685;-56
2022/04/07 13:29:03;;;;;;;0.60;0.40;;;;;;;;;;6119596;23;20062;-54
2022/04/07 13:31:29;;;;;;;1.08;0.52;;;;;;;;;;6117784;23;20034;-54
2022/04/07 13:33:54;;;;;;;4.78;1.02;;;;;;;;;;6118760;23;20020;-56
2022/04/07 13:36:19;;;;;;;3.80;0.80;;;;;;;;;;6117899;23;20021;-53
2022/04/07 13:38:44;;;;;;;3.15;0.95;;;;;;;;;;6119546;23;20073;-54
2022/04/07 13:41:10;;;;;;;1.52;0.70;;;;;;;;;;6118591;23;20010;-52
2022/04/07 13:43:36;;;;;;;2.33;1.00;;;;;;;;;;6118918;23;20025;-55
2022/04/07 13:46:01;;;;;;;2.28;0.75;;;;;;;;;;6118923;23;20030;-55
2022/04/07 13:48:27;;;;;;;3.53;1.40;;;;;;;;;;6118334;23;20029;-53
2022/04/07 13:50:53;;;;;;;4.05;2.30;;;;;;;;;;6118936;23;20018;-54
2022/04/07 13:53:18;;;;;;;5.63;1.10;;;;;;;;;;6140045;23;20033;-57
2022/04/07 13:55:44;;;;;;;2.65;1.02;;;;;;;;;;6116968;23;20359;-54
2022/04/07 13:58:10;;;;;;;0.70;0.50;;;;;;;;;;6118859;23;20010;-57
2022/04/07 14:00:36;;;;;;;2.45;0.70;;;;;;;;;;6117744;23;20017;-56
2022/04/07 14:03:01;;;;;;;5.68;0.90;;;;;;;;;;6119456;23;20032;-56
2022/04/07 14:05:26;;;;;;;7.13;0.75;;;;;;;;;;6117725;23;20094;-56
2022/04/07 14:07:51;;;;;;;3.88;0.63;;;;;;;;;;6142140;23;20020;-53
2022/04/07 14:10:17;;;;;;;2.65;0.70;;;;;;;;;;6118072;23;20059;-57
2022/04/07 14:12:43;;;;;;;5.22;1.40;;;;;;;;;;6118254;23;20021;-51
2022/04/07 14:15:08;;;;;;;3.60;0.90;;;;;;;;;;6118922;23;20073;-57
2022/04/07 14:17:34;;;;;;;6.72;1.15;;;;;;;;;;6113647;23;20046;-55
2022/04/07 14:19:59;;;;;;;4.63;1.10;;;;;;;;;;6117920;23;20006;-57
2022/04/07 14:22:24;;;;;;;2.67;0.93;;;;;;;;;;6118011;23;20026;-56
2022/04/07 14:24:50;;;;;;;2.90;0.90;;;;;;;;;;6119451;23;20010;-56
2022/04/07 14:27:15;;;;;;;1.00;0.80;;;;;;;;;;6115260;23;20022;-54
2022/04/07 14:29:40;;;;;;;1.92;0.95;;;;;;;;;;6120313;23;20239;-55